Shenandoah National Park, VA

6:16 PM EDT on July 28, 2016 (GMT -0400)
Lord Willing Dr. | | Change Station

Elev 499 ft 38.54 °N, 77.94 °W | Updated 50 seconds ago

Overcast
Overcast
79.5 °F
Feels Like 83 °F
N
2.9
Wind Variable Wind from North
Gusts 14.0 mph

Today
High -- | Low -- °F
--% Chance of Precip.
Yesterday
High -- | Low -- °F
Precip. -- in
Pressure 29.84 in
Visibility 5.0 miles
Clouds Scattered Clouds 1900 ft
Scattered Clouds 3200 ft
Mostly Cloudy 7500 ft
Heat Index 83 °F
Dew Point 74 °F
Humidity 82%
Rainfall 0.00 in
Snow Depth Not available.
6:10 AM 8:25 PM
Waning Crescent, 28% visible
METAR KCJR 282155Z AUTO 34005KT 5SM +VCTSRA SCT019 SCT032 BKN075 27/24 A2984 RMK AO2 LTG DSNT SE THRU NW P0002 T02730238
Pressure 29.84 in
Visibility 5.0 miles
Clouds Scattered Clouds 1900 ft
Scattered Clouds 3200 ft
Mostly Cloudy 7500 ft
Heat Index 83 °F
Dew Point 74 °F
Humidity 82%
Rainfall 0.00 in
Snow Depth Not available.
6:10 AM 8:25 PM
Waning Crescent, 28% visible
METAR KCJR 282155Z AUTO 34005KT 5SM +VCTSRA SCT019 SCT032 BKN075 27/24 A2984 RMK AO2 LTG DSNT SE THRU NW P0002 T02730238

10-Day Weather Forecast

Almanac

Astronomy

Jul. 28, 2016 Rise Set
Actual Time
Civil Twilight
Nautical Twilight
Astronomical Twilight
Moon
Length of Visible Light
Length of Day
Tomorrow will be .
, % of the Moon is Illuminated

Today's Extremes

State Highs State Lows

Community

WunderPhotos

Upload Photos

1,928,219 photos uploaded!

WunderBlog® & News

Nearby

Air Quality

  Air Quality AQ Index Pollutant
Not available.

Snow Depth

Station Depth Elevation

Earthquake Activity

City Distance Mag. Time & Date
Minimum magnitude displayed is 2.5.

Coastal Water Temperatures

Place Temperature

Stations

Nearby Weather Stations

Station Location Temp. Windchill Dew Point Humidity Wind Precip. Elev Updated Type
                   

Watches & Warnings

Severe Thunderstorm Watch
Issued: 6:03 PM EDT Jul. 28, 2016 – National Weather Service

Severe Thunderstorm Watch 418 remains in effect until 1200 am EDT

VA
. Virginia counties included are

Albemarle Arlington Augusta
Clarke Culpeper Fairfax
Fauquier Frederick Greene
Highland King George Loudoun
Madison Nelson Orange
Page Prince William Rappahannock
Rockingham Shenandoah Spotsylvania
Stafford Warren


Virginia independent cities included are

Alexandria Charlottesville Fairfax
Falls church Fredericksburg Harrisonburg
Manassas Manassas Park Staunton
Waynesboro Winchester